Time;durP1;ratioP1;P1;durP2;ratioP2;P2;SDS_P1;SDS_P2;PMS_P1;PMS_P2;Temp;Humidity;BMP_temperature;BMP_pressure;BME280_temperature;BME280_humidity;BME280_pressure;Samples;Min_cycle;Max_cycle;Signal;HPM_P1;HPM_P2
2022/06/21 00:00:22;;;;;;;1.52;0.70;;;13.40;99.90;;;;;;20869579;28;20032;-40
2022/06/21 00:10:23;;;;;;;1.70;0.95;;;13.30;99.90;;;;;;20858741;28;20048;-40
2022/06/21 00:20:25;;;;;;;2.40;0.90;;;13.20;99.90;;;;;;20852093;28;20091;-40
2022/06/21 00:30:27;;;;;;;2.22;1.45;;;13.10;99.90;;;;;;20861373;28;20040;-41
2022/06/21 00:40:31;;;;;;;3.38;1.40;;;13.10;99.90;;;;;;20860140;28;20442;-40
2022/06/21 00:50:37;;;;;;;2.13;0.68;;;13.10;99.90;;;;;;20866431;28;20067;-41
2022/06/21 01:01:03;;;;;;;2.25;0.50;;;12.80;99.90;;;;;;20873273;28;20033;-40
2022/06/21 01:11:10;;;;;;;2.30;0.95;;;12.70;99.90;;;;;;20879918;28;20462;-40
2022/06/21 01:21:15;;;;;;;2.05;0.93;;;12.70;99.90;;;;;;20873974;28;20033;-40
2022/06/21 01:31:16;;;;;;;3.70;0.80;;;12.60;99.90;;;;;;20876774;28;20033;-40
2022/06/21 01:41:23;;;;;;;3.00;1.25;;;12.60;99.90;;;;;;20886126;28;20606;-40
2022/06/21 01:51:36;;;;;;;3.33;1.13;;;12.50;99.90;;;;;;20887931;28;20052;-40
2022/06/21 02:01:53;;;;;;;3.67;1.00;;;12.30;99.90;;;;;;20886119;28;20040;-40
2022/06/21 02:12:07;;;;;;;2.30;1.03;;;12.40;99.90;;;;;;20883326;28;21440;-40
2022/06/21 02:22:16;;;;;;;2.28;0.75;;;12.20;99.90;;;;;;20885737;28;20530;-41
2022/06/21 02:32:39;;;;;;;1.50;0.88;;;12.20;99.90;;;;;;20878670;28;20035;-40
2022/06/21 02:42:41;;;;;;;2.15;0.90;;;12.10;99.90;;;;;;20864615;28;20059;-40
2022/06/21 02:52:43;;;;;;;2.85;1.20;;;11.90;99.90;;;;;;20864640;28;21027;-41
2022/06/21 03:02:45;;;;;;;6.65;1.00;;;11.90;99.90;;;;;;20858846;28;20044;-40
2022/06/21 03:12:49;;;;;;;2.33;0.82;;;11.80;99.90;;;;;;20867152;28;20063;-40
2022/06/21 03:22:54;;;;;;;2.55;1.00;;;11.70;99.90;;;;;;20868004;28;20047;-40
2022/06/21 03:32:57;;;;;;;1.52;0.85;;;11.30;99.90;;;;;;20866271;28;20036;-40
2022/06/21 03:43:05;;;;;;;1.70;0.90;;;11.60;99.90;;;;;;20868881;28;20976;-40
2022/06/21 03:53:16;;;;;;;2.38;0.70;;;11.50;99.90;;;;;;20861068;28;20036;-40
2022/06/21 04:03:26;;;;;;;1.42;0.73;;;11.60;99.90;;;;;;20853494;28;20040;-40
2022/06/21 04:13:34;;;;;;;8.70;1.38;;;11.50;99.90;;;;;;20857248;28;20029;-40
2022/06/21 04:23:47;;;;;;;3.22;0.85;;;11.70;99.90;;;;;;20857187;28;20041;-41
2022/06/21 04:34:03;;;;;;;2.20;0.95;;;11.50;99.90;;;;;;20845586;28;21388;-40
2022/06/21 04:44:07;;;;;;;1.55;0.90;;;11.60;99.90;;;;;;20844144;28;20455;-39
2022/06/21 04:54:24;;;;;;;2.67;0.93;;;11.90;99.90;;;;;;20850425;28;20525;-40
2022/06/21 05:04:30;;;;;;;2.55;0.63;;;12.20;99.90;;;;;;20842787;28;20036;-41
2022/06/21 05:14:44;;;;;;;2.08;0.82;;;12.90;99.90;;;;;;20847268;28;20029;-41
2022/06/21 05:24:45;;;;;;;1.88;0.70;;;13.40;99.90;;;;;;20850540;28;20494;-41
2022/06/21 05:34:51;;;;;;;2.70;0.57;;;13.80;99.90;;;;;;20861214;28;21462;-41
2022/06/21 05:45:01;;;;;;;1.02;0.40;;;14.20;99.90;;;;;;20863674;28;20657;-40
2022/06/21 05:55:07;;;;;;;1.33;0.52;;;14.30;99.90;;;;;;20866449;28;20395;-39
2022/06/21 06:05:16;;;;;;;2.33;0.50;;;14.60;99.90;;;;;;20864784;28;20335;-39
2022/06/21 06:15:24;;;;;;;1.75;0.50;;;14.90;99.90;;;;;;20857546;28;20526;-39
2022/06/21 06:25:43;;;;;;;1.40;0.68;;;15.30;99.90;;;;;;20868256;28;21401;-39
2022/06/21 06:35:46;;;;;;;2.47;0.50;;;15.90;99.90;;;;;;20870723;28;20037;-39
2022/06/21 06:45:48;;;;;;;5.70;2.35;;;16.10;99.90;;;;;;20886092;28;20478;-39
2022/06/21 06:56:03;;;;;;;1.00;0.40;;;16.40;99.90;;;;;;20896352;28;20044;-39
2022/06/21 07:06:42;;;;;;;6.40;0.60;;;16.10;99.90;;;;;;20869893;28;20044;-39
2022/06/21 07:16:43;;;;;;;1.10;0.47;;;16.00;99.90;;;;;;20874437;28;20964;-39
2022/06/21 07:26:55;;;;;;;1.73;0.55;;;16.20;99.90;;;;;;20877216;28;20044;-39
2022/06/21 07:37:22;;;;;;;1.20;0.50;;;16.60;99.90;;;;;;20888933;28;20311;-39
2022/06/21 07:47:39;;;;;;;1.67;0.85;;;16.60;99.90;;;;;;20860630;28;20509;-39
2022/06/21 07:57:46;;;;;;;1.10;0.43;;;16.30;99.90;;;;;;20875774;28;20476;-39
2022/06/21 08:07:50;;;;;;;1.30;0.50;;;16.40;99.90;;;;;;20854591;28;20510;-40
2022/06/21 08:18:10;;;;;;;1.15;0.30;;;16.80;99.90;;;;;;20889022;28;20519;-39
2022/06/21 08:28:30;;;;;;;1.58;0.40;;;17.20;99.90;;;;;;20875259;28;20047;-39
2022/06/21 08:38:43;;;;;;;1.50;0.50;;;17.30;99.90;;;;;;20865828;28;21461;-39
2022/06/21 08:49:08;;;;;;;1.55;0.38;;;17.40;99.90;;;;;;20872036;28;20032;-39
2022/06/21 08:59:34;;;;;;;1.67;1.33;;;17.60;99.90;;;;;;20855651;28;20947;-39
2022/06/21 09:09:45;;;;;;;2.00;0.63;;;17.90;99.90;;;;;;20878762;28;20041;-39
2022/06/21 09:20:02;;;;;;;2.30;0.40;;;18.20;99.90;;;;;;20891763;28;20555;-39
2022/06/21 09:30:06;;;;;;;2.13;0.50;;;18.60;99.90;;;;;;20886249;28;20052;-39
2022/06/21 09:40:30;;;;;;;1.60;0.80;;;18.70;99.90;;;;;;20877035;28;20102;-39
2022/06/21 09:50:57;;;;;;;1.52;0.93;;;19.00;99.90;;;;;;20874798;28;20671;-40
2022/06/21 10:01:12;;;;;;;1.40;0.50;;;18.70;99.90;;;;;;20879212;28;20514;-39
2022/06/21 10:11:37;;;;;;;1.23;0.30;;;18.60;99.90;;;;;;20874764;28;20079;-40
2022/06/21 10:22:00;;;;;;;2.05;0.70;;;18.80;99.90;;;;;;20871225;28;20049;-39
2022/06/21 10:32:11;;;;;;;1.23;0.47;;;19.00;99.90;;;;;;20873938;28;21412;-39
2022/06/21 10:42:48;;;;;;;1.00;0.20;;;18.80;99.90;;;;;;20882323;28;20048;-37
2022/06/21 10:53:08;;;;;;;0.90;0.40;;;19.40;99.90;;;;;;20886872;28;21544;-38
2022/06/21 11:03:46;;;;;;;2.03;0.20;;;20.00;99.90;;;;;;20890049;28;20041;-38
2022/06/21 11:14:07;;;;;;;0.57;0.30;;;20.50;99.90;;;;;;20869347;28;20869;-39
2022/06/21 11:24:26;;;;;;;1.25;0.47;;;20.80;99.90;;;;;;20860871;28;20371;-38
2022/06/21 11:34:48;;;;;;;0.98;0.38;;;20.50;99.90;;;;;;20859800;28;20665;-39
2022/06/21 11:45:16;;;;;;;2.75;0.65;;;20.60;99.90;;;;;;20863657;28;20055;-38
2022/06/21 11:55:36;;;;;;;3.45;1.08;;;20.80;99.90;;;;;;20881842;28;20404;-39
2022/06/21 12:05:48;;;;;;;0.80;0.32;;;20.80;99.90;;;;;;20876491;28;20039;-38
2022/06/21 12:15:52;;;;;;;1.30;0.80;;;21.30;99.90;;;;;;20868484;28;21196;-39
2022/06/21 12:25:53;;;;;;;0.88;0.30;;;21.20;99.90;;;;;;20886916;28;20060;-39
2022/06/21 12:35:54;;;;;;;0.82;0.40;;;21.30;99.90;;;;;;20886506;28;20041;-38
2022/06/21 12:46:03;;;;;;;1.00;0.47;;;21.20;99.90;;;;;;20881570;28;20435;-39
2022/06/21 12:56:20;;;;;;;1.15;0.60;;;21.00;99.90;;;;;;20884704;28;20044;-39
2022/06/21 13:06:51;;;;;;;1.90;0.57;;;21.10;99.90;;;;;;20869973;28;20033;-38
2022/06/21 13:17:00;;;;;;;1.38;0.50;;;21.00;99.90;;;;;;20848983;28;20040;-39
2022/06/21 13:27:16;;;;;;;1.48;0.35;;;20.90;99.90;;;;;;20872806;28;20040;-39
2022/06/21 13:37:40;;;;;;;1.10;0.40;;;21.10;99.90;;;;;;20862574;28;20059;-39
2022/06/21 13:47:57;;;;;;;1.27;0.47;;;21.50;99.90;;;;;;20867092;28;20036;-39
2022/06/21 13:58:22;;;;;;;2.08;0.57;;;21.40;99.90;;;;;;20879324;28;20057;-39
2022/06/21 14:08:34;;;;;;;1.20;0.50;;;21.40;99.90;;;;;;20872963;28;20063;-39
2022/06/21 14:19:00;;;;;;;0.98;0.55;;;21.50;99.90;;;;;;20875703;28;20041;-39
2022/06/21 14:29:08;;;;;;;1.30;0.45;;;21.50;99.90;;;;;;20878352;28;21445;-39
2022/06/21 14:39:17;;;;;;;1.05;0.73;;;21.50;99.90;;;;;;20878899;28;20063;-39
2022/06/21 14:49:27;;;;;;;1.27;0.50;;;21.70;99.90;;;;;;20877618;28;20032;-39
2022/06/21 15:00:04;;;;;;;1.13;0.60;;;22.10;99.90;;;;;;20876489;28;20040;-39
2022/06/21 15:10:10;;;;;;;0.95;0.50;;;22.30;99.90;;;;;;20877358;28;21331;-39
2022/06/21 15:20:23;;;;;;;0.80;0.30;;;22.30;99.90;;;;;;20869411;28;21586;-39
2022/06/21 15:30:27;;;;;;;1.05;0.30;;;22.10;99.90;;;;;;20870367;28;20315;-40
2022/06/21 15:40:40;;;;;;;1.25;0.30;;;21.70;99.90;;;;;;20842367;28;20125;-39
2022/06/21 15:50:53;;;;;;;1.33;0.75;;;21.60;99.90;;;;;;20880855;28;20040;-39
2022/06/21 16:01:10;;;;;;;0.45;0.10;;;21.60;99.90;;;;;;20884676;28;21431;-39
2022/06/21 16:11:27;;;;;;;0.47;0.25;;;21.70;98.90;;;;;;20887260;28;20150;-39
2022/06/21 16:21:36;;;;;;;0.68;0.30;;;21.80;99.90;;;;;;20884567;28;21326;-39
2022/06/21 16:52:42;;;;;;;1.17;0.40;;;21.80;99.90;;;;;;20878798;28;21647;-39
2022/06/21 17:02:48;;;;;;;2.15;0.90;;;21.40;99.90;;;;;;20880055;28;20562;-40
2022/06/21 17:12:50;;;;;;;1.27;0.70;;;21.30;99.90;;;;;;20880778;28;21491;-39
2022/06/21 17:23:05;;;;;;;1.25;0.60;;;21.20;99.90;;;;;;20890359;28;20052;-40
2022/06/21 17:33:16;;;;;;;1.27;0.50;;;21.10;99.90;;;;;;20900273;28;20044;-40
2022/06/21 17:43:34;;;;;;;0.65;0.30;;;21.00;99.90;;;;;;20900974;28;20489;-40
2022/06/21 17:53:43;;;;;;;1.40;0.70;;;20.80;99.90;;;;;;20899585;28;20029;-40
2022/06/21 18:03:53;;;;;;;0.82;0.28;;;20.60;99.90;;;;;;20905327;28;20423;-39
2022/06/21 18:14:02;;;;;;;0.40;0.20;;;20.60;99.90;;;;;;20892890;28;20063;-40
2022/06/21 18:24:33;;;;;;;0.77;0.40;;;20.50;99.90;;;;;;20905913;28;20571;-40
2022/06/21 18:34:35;;;;;;;0.98;0.30;;;20.30;99.90;;;;;;20887503;28;20510;-39
2022/06/21 18:45:04;;;;;;;0.55;0.22;;;20.30;99.90;;;;;;20889408;28;20082;-39
2022/06/21 18:55:08;;;;;;;1.00;0.32;;;20.10;99.90;;;;;;20889149;28;20745;-40
2022/06/21 19:16:17;;;;;;;0.43;0.20;;;19.80;99.90;;;;;;20885960;28;20327;-39
2022/06/21 19:26:29;;;;;;;0.85;0.40;;;19.60;99.90;;;;;;20880868;28;20482;-39
2022/06/21 19:37:07;;;;;;;0.75;0.43;;;19.40;99.90;;;;;;20890582;28;21558;-39
2022/06/21 19:47:15;;;;;;;0.38;0.15;;;19.20;99.90;;;;;;20884349;28;20040;-39
2022/06/21 19:57:32;;;;;;;0.80;0.30;;;19.10;99.90;;;;;;20872616;28;20423;-39
2022/06/21 20:07:38;;;;;;;1.05;0.45;;;18.80;99.90;;;;;;20882931;28;20489;-39
2022/06/21 20:17:44;;;;;;;0.80;0.30;;;18.60;99.90;;;;;;20877784;28;20028;-40
2022/06/21 20:27:52;;;;;;;1.27;0.35;;;18.40;99.90;;;;;;20886743;28;20044;-39
2022/06/21 20:38:05;;;;;;;3.13;0.63;;;18.20;99.90;;;;;;20891952;28;20045;-39
2022/06/21 20:48:10;;;;;;;2.33;1.40;;;18.20;99.90;;;;;;20894162;28;20126;-40
2022/06/21 20:58:11;;;;;;;2.20;0.73;;;18.10;99.90;;;;;;20893628;28;20044;-38
2022/06/21 21:08:25;;;;;;;3.35;0.80;;;18.00;99.90;;;;;;20908480;28;20048;-38
2022/06/21 21:18:39;;;;;;;1.10;0.57;;;17.90;99.90;;;;;;20908145;28;20500;-38
2022/06/21 21:28:42;;;;;;;1.95;0.90;;;17.70;99.90;;;;;;20901086;28;20037;-38
2022/06/21 21:38:59;;;;;;;1.48;0.47;;;17.60;99.90;;;;;;20904912;28;20056;-38
2022/06/21 21:49:05;;;;;;;2.38;0.50;;;17.50;99.90;;;;;;20902385;28;20472;-38
2022/06/21 21:59:15;;;;;;;0.90;0.45;;;17.40;99.90;;;;;;20902448;28;20052;-38
2022/06/21 22:09:44;;;;;;;1.85;0.68;;;17.30;99.90;;;;;;20898939;28;20033;-38
2022/06/21 22:19:52;;;;;;;2.05;0.57;;;17.20;99.90;;;;;;20891692;28;20333;-38
2022/06/21 22:29:53;;;;;;;1.67;1.50;;;17.00;99.90;;;;;;20900619;28;20534;-38
2022/06/21 22:40:23;;;;;;;5.00;0.88;;;17.00;99.90;;;;;;20900203;28;20047;-38
2022/06/21 22:50:42;;;;;;;1.42;0.75;;;16.90;99.90;;;;;;20888088;28;20167;-38
2022/06/21 23:01:12;;;;;;;9.82;1.38;;;16.80;99.90;;;;;;20897553;28;20049;-38
2022/06/21 23:11:25;;;;;;;1.75;0.70;;;16.70;99.90;;;;;;20896775;28;21493;-39
2022/06/21 23:21:37;;;;;;;1.52;0.68;;;16.70;99.90;;;;;;20892266;28;20051;-39
2022/06/21 23:32:06;;;;;;;1.60;0.60;;;16.50;99.90;;;;;;20893320;28;20041;-39
2022/06/21 23:42:14;;;;;;;1.58;0.70;;;16.50;99.90;;;;;;20891583;28;20066;-39
2022/06/21 23:52:24;;;;;;;1.42;0.65;;;16.30;99.90;;;;;;20888339;28;20037;-39
